Time;durP1;ratioP1;P1;durP2;ratioP2;P2;SDS_P1;SDS_P2;PMS_P1;PMS_P2;Temp;Humidity;BMP_temperature;BMP_pressure;BME280_temperature;BME280_humidity;BME280_pressure;Samples;Min_cycle;Max_cycle;Signal;HPM_P1;HPM_P2
2023/01/06 00:00:10;;;;;;;51.58;10.88;;;;;;;;;;5101131;28;20513;-70
2023/01/06 00:02:37;;;;;;;54.58;9.35;;;;;;;;;;5096006;28;20048;-69
2023/01/06 00:05:03;;;;;;;41.05;8.82;;;;;;;;;;5099248;28;20126;-70
2023/01/06 00:07:29;;;;;;;49.13;9.25;;;;;;;;;;5095391;28;20043;-69
2023/01/06 00:09:55;;;;;;;43.33;7.63;;;;;;;;;;5098716;28;20418;-69
2023/01/06 00:12:21;;;;;;;51.08;9.32;;;;;;;;;;5094113;28;20044;-69
2023/01/06 00:14:47;;;;;;;43.20;9.05;;;;;;;;;;5098179;27;20052;-69
2023/01/06 00:17:14;;;;;;;39.60;7.53;;;;;;;;;;5097870;28;20112;-69
2023/01/06 00:19:40;;;;;;;35.97;6.78;;;;;;;;;;5095468;27;20055;-69
2023/01/06 00:22:06;;;;;;;40.05;8.70;;;;;;;;;;5098735;28;20043;-69
2023/01/06 00:24:33;;;;;;;48.25;9.43;;;;;;;;;;5093609;28;20044;-69
2023/01/06 00:26:59;;;;;;;38.42;7.53;;;;;;;;;;5095581;28;20564;-69
2023/01/06 00:29:26;;;;;;;40.40;7.55;;;;;;;;;;5106149;28;20044;-69
2023/01/06 00:31:52;;;;;;;32.97;6.60;;;;;;;;;;5098729;28;20115;-69
2023/01/06 00:34:18;;;;;;;35.90;6.32;;;;;;;;;;5098507;28;20071;-68
2023/01/06 00:36:45;;;;;;;30.15;6.82;;;;;;;;;;5095140;28;20044;-69
2023/01/06 00:39:12;;;;;;;31.15;6.07;;;;;;;;;;5097461;28;20036;-69
2023/01/06 00:44:23;;;;;;;24.58;5.68;;;;;;;;;;5104309;27;20111;-69
2023/01/06 00:46:49;;;;;;;27.38;6.80;;;;;;;;;;5104177;27;20046;-69
2023/01/06 00:49:15;;;;;;;27.45;5.65;;;;;;;;;;5104416;27;20065;-68
2023/01/06 00:51:42;;;;;;;24.73;4.57;;;;;;;;;;5101620;27;20067;-69
2023/01/06 00:54:09;;;;;;;26.52;5.53;;;;;;;;;;5102326;27;20058;-69
2023/01/06 00:56:36;;;;;;;25.63;5.35;;;;;;;;;;5102032;27;20140;-69
2023/01/06 00:59:02;;;;;;;27.88;4.82;;;;;;;;;;5107903;27;20195;-69
2023/01/06 01:01:29;;;;;;;24.17;5.05;;;;;;;;;;5084161;28;20190;-69
2023/01/06 01:03:55;;;;;;;21.00;5.28;;;;;;;;;;5087576;27;20067;-69
2023/01/06 01:06:21;;;;;;;23.02;5.00;;;;;;;;;;5089679;27;20349;-68
2023/01/06 01:08:47;;;;;;;26.67;4.00;;;;;;;;;;5103971;27;20523;-68
2023/01/06 01:12:08;;;;;;;23.88;4.18;;;;;;;;;;5087329;28;20343;-68
2023/01/06 01:13:59;;;;;;;21.80;4.25;;;;;;;;;;5088334;27;20135;-68
2023/01/06 01:16:26;;;;;;;22.23;5.47;;;;;;;;;;5087267;27;20070;-69
2023/01/06 01:18:52;;;;;;;17.77;3.97;;;;;;;;;;5104361;27;20124;-68
2023/01/06 01:21:18;;;;;;;16.02;3.85;;;;;;;;;;5088907;27;20167;-69
2023/01/06 01:23:44;;;;;;;20.83;3.83;;;;;;;;;;5102297;27;20086;-69
2023/01/06 01:26:10;;;;;;;19.55;3.88;;;;;;;;;;5106121;27;20058;-69
2023/01/06 01:28:36;;;;;;;23.15;5.30;;;;;;;;;;5104060;27;20129;-69
2023/01/06 01:31:03;;;;;;;23.48;4.55;;;;;;;;;;5089849;28;20043;-69
2023/01/06 01:33:30;;;;;;;18.17;4.10;;;;;;;;;;5104644;27;20055;-69
2023/01/06 01:35:56;;;;;;;21.65;3.60;;;;;;;;;;5104456;27;20391;-69
2023/01/06 01:38:22;;;;;;;21.08;4.00;;;;;;;;;;5102669;27;20062;-69
2023/01/06 01:40:49;;;;;;;27.90;4.57;;;;;;;;;;5102632;27;20063;-69
2023/01/06 01:43:16;;;;;;;16.88;3.20;;;;;;;;;;5097448;28;20066;-69
2023/01/06 01:45:44;;;;;;;20.27;4.05;;;;;;;;;;5097030;28;20119;-69
2023/01/06 01:48:15;;;;;;;24.00;3.97;;;;;;;;;;5097973;28;20088;-69
2023/01/06 01:50:44;;;;;;;19.92;3.67;;;;;;;;;;5097484;28;20118;-69
2023/01/06 01:53:12;;;;;;;22.70;4.45;;;;;;;;;;5098645;28;20074;-68
2023/01/06 01:55:39;;;;;;;20.83;3.78;;;;;;;;;;5092799;28;20047;-69
2023/01/06 01:58:06;;;;;;;19.08;3.75;;;;;;;;;;5095706;28;20044;-69
2023/01/06 02:00:33;;;;;;;24.10;4.05;;;;;;;;;;5100815;28;20463;-69
2023/01/06 02:02:59;;;;;;;23.15;3.30;;;;;;;;;;5096719;28;20432;-69
2023/01/06 02:05:26;;;;;;;18.80;3.50;;;;;;;;;;5095007;28;20048;-69
2023/01/06 02:07:56;;;;;;;17.25;3.33;;;;;;;;;;5101227;28;20061;-69
2023/01/06 02:10:23;;;;;;;23.27;3.53;;;;;;;;;;5101068;28;20168;-69
2023/01/06 02:12:51;;;;;;;16.50;2.90;;;;;;;;;;5103051;28;20040;-68
2023/01/06 02:15:21;;;;;;;16.73;3.55;;;;;;;;;;5096600;28;20066;-69
2023/01/06 02:17:47;;;;;;;20.83;3.30;;;;;;;;;;5102749;28;20429;-68
2023/01/06 02:20:22;;;;;;;10.77;2.63;;;;;;;;;;5093447;28;20391;-69
2023/01/06 02:22:54;;;;;;;16.73;3.60;;;;;;;;;;5097316;28;20043;-69
2023/01/06 02:25:21;;;;;;;16.48;3.53;;;;;;;;;;5093441;28;20538;-69
2023/01/06 02:27:47;;;;;;;17.15;3.65;;;;;;;;;;5097305;28;20047;-69
2023/01/06 02:30:15;;;;;;;12.88;3.10;;;;;;;;;;5099079;28;20043;-69
2023/01/06 02:32:48;;;;;;;17.77;3.47;;;;;;;;;;5096263;28;20036;-69
2023/01/06 02:35:20;;;;;;;14.32;2.80;;;;;;;;;;5094829;28;20074;-69
2023/01/06 02:37:52;;;;;;;17.73;3.50;;;;;;;;;;5097508;28;20425;-69
2023/01/06 02:40:18;;;;;;;13.75;2.47;;;;;;;;;;5098084;28;20142;-69
2023/01/06 02:43:00;;;;;;;12.02;2.33;;;;;;;;;;5101253;28;20460;-69
2023/01/06 02:45:26;;;;;;;18.52;3.03;;;;;;;;;;5103740;28;21172;-69
2023/01/06 02:47:52;;;;;;;19.23;2.70;;;;;;;;;;5085155;28;20035;-69
2023/01/06 02:50:19;;;;;;;21.60;3.50;;;;;;;;;;5105678;28;20058;-69
2023/01/06 02:52:52;;;;;;;12.73;2.25;;;;;;;;;;5094323;28;20113;-70
2023/01/06 02:55:23;;;;;;;17.25;2.95;;;;;;;;;;5100020;28;20093;-69
2023/01/06 02:57:49;;;;;;;16.38;2.95;;;;;;;;;;5087451;28;20433;-69
2023/01/06 03:00:21;;;;;;;8.77;1.80;;;;;;;;;;5103782;28;20047;-69
2023/01/06 03:02:50;;;;;;;17.40;2.53;;;;;;;;;;5087241;28;20055;-69
2023/01/06 03:05:16;;;;;;;9.40;2.92;;;;;;;;;;5087763;28;20507;-69
2023/01/06 03:07:44;;;;;;;13.63;3.88;;;;;;;;;;5102054;28;20084;-69
2023/01/06 03:10:12;;;;;;;9.73;3.08;;;;;;;;;;5106140;27;20050;-70
2023/01/06 03:12:42;;;;;;;14.73;3.47;;;;;;;;;;5088603;27;20044;-69
2023/01/06 03:15:09;;;;;;;12.68;4.53;;;;;;;;;;5088719;27;20122;-70
2023/01/06 03:17:35;;;;;;;11.25;3.50;;;;;;;;;;5089753;27;20042;-69
2023/01/06 03:20:01;;;;;;;13.15;4.40;;;;;;;;;;5087731;27;20062;-69
2023/01/06 03:22:28;;;;;;;10.27;4.38;;;;;;;;;;5103828;27;20608;-69
2023/01/06 03:24:54;;;;;;;13.82;5.60;;;;;;;;;;5105589;27;20479;-69
2023/01/06 03:27:23;;;;;;;17.55;5.70;;;;;;;;;;5104570;27;20521;-69
2023/01/06 03:29:49;;;;;;;16.27;6.13;;;;;;;;;;5103564;27;20043;-69
2023/01/06 03:32:16;;;;;;;16.58;6.82;;;;;;;;;;5105723;27;20046;-69
2023/01/06 03:34:56;;;;;;;11.73;6.95;;;;;;;;;;5091353;28;20092;-69
2023/01/06 03:37:26;;;;;;;13.95;8.35;;;;;;;;;;5104482;27;20040;-69
2023/01/06 03:40:00;;;;;;;17.50;9.20;;;;;;;;;;5096335;28;20048;-68
2023/01/06 03:45:24;;;;;;;14.85;9.73;;;;;;;;;;5098899;28;20490;-69
2023/01/06 03:47:50;;;;;;;16.95;10.07;;;;;;;;;;5099785;28;20055;-69
2023/01/06 03:50:19;;;;;;;21.05;11.40;;;;;;;;;;5095258;28;20125;-69
2023/01/06 03:52:49;;;;;;;19.25;11.82;;;;;;;;;;5094814;28;20122;-69
2023/01/06 03:55:17;;;;;;;17.73;11.45;;;;;;;;;;5101708;28;20048;-69
2023/01/06 03:57:45;;;;;;;14.15;10.75;;;;;;;;;;5099997;28;20194;-69
2023/01/06 04:00:14;;;;;;;16.08;10.68;;;;;;;;;;5099891;28;20062;-69
2023/01/06 04:02:41;;;;;;;18.40;11.07;;;;;;;;;;5098912;28;20422;-69
2023/01/06 04:05:12;;;;;;;15.82;10.43;;;;;;;;;;5099333;28;20052;-69
2023/01/06 04:07:39;;;;;;;17.70;9.95;;;;;;;;;;5098924;28;20044;-69
2023/01/06 04:10:06;;;;;;;15.43;9.32;;;;;;;;;;5101955;28;21195;-69
2023/01/06 04:12:38;;;;;;;14.77;8.40;;;;;;;;;;5098802;28;20107;-69
2023/01/06 04:15:06;;;;;;;11.15;7.57;;;;;;;;;;5098971;27;20509;-69
2023/01/06 04:17:32;;;;;;;17.30;7.93;;;;;;;;;;5103314;28;20122;-69
2023/01/06 04:19:59;;;;;;;9.40;6.90;;;;;;;;;;5098569;28;20456;-70
2023/01/06 04:22:25;;;;;;;11.13;6.07;;;;;;;;;;5098983;28;20126;-69
2023/01/06 04:24:51;;;;;;;9.40;6.68;;;;;;;;;;5099195;28;20490;-69
2023/01/06 04:27:17;;;;;;;9.50;6.53;;;;;;;;;;5099523;27;20356;-69
2023/01/06 04:29:43;;;;;;;12.07;5.55;;;;;;;;;;5099911;28;20044;-69
2023/01/06 04:32:09;;;;;;;7.47;4.90;;;;;;;;;;5094957;28;20074;-69
2023/01/06 04:34:35;;;;;;;9.05;4.72;;;;;;;;;;5098777;28;20138;-69
2023/01/06 04:37:02;;;;;;;9.65;5.00;;;;;;;;;;5099452;28;20113;-69
2023/01/06 04:39:28;;;;;;;7.63;3.97;;;;;;;;;;5099108;28;20048;-69
2023/01/06 04:41:54;;;;;;;7.95;4.30;;;;;;;;;;5098860;28;20503;-69
2023/01/06 04:44:20;;;;;;;13.02;4.72;;;;;;;;;;5099865;27;20055;-69
2023/01/06 04:46:46;;;;;;;8.43;3.97;;;;;;;;;;5098524;28;20039;-69
2023/01/06 04:49:12;;;;;;;6.30;3.65;;;;;;;;;;5093226;28;20063;-69
2023/01/06 04:51:38;;;;;;;9.25;3.45;;;;;;;;;;5098087;28;20047;-69
2023/01/06 04:54:05;;;;;;;11.07;3.90;;;;;;;;;;5098921;28;20099;-69
2023/01/06 04:56:31;;;;;;;7.25;3.15;;;;;;;;;;5099795;28;20092;-69
2023/01/06 04:58:57;;;;;;;7.95;3.15;;;;;;;;;;5095071;28;20056;-69
2023/01/06 05:01:24;;;;;;;10.25;3.40;;;;;;;;;;5093090;28;20437;-69
2023/01/06 05:03:50;;;;;;;8.27;2.55;;;;;;;;;;5098585;28;20105;-69
2023/01/06 05:06:17;;;;;;;6.13;3.03;;;;;;;;;;5097311;28;20119;-69
2023/01/06 05:08:43;;;;;;;11.23;3.40;;;;;;;;;;5093996;28;21215;-69
2023/01/06 05:11:12;;;;;;;9.32;3.65;;;;;;;;;;5098229;28;20073;-69
2023/01/06 05:13:38;;;;;;;10.68;2.53;;;;;;;;;;5098153;28;20111;-69
2023/01/06 05:16:09;;;;;;;8.35;2.90;;;;;;;;;;5098355;28;20035;-69
2023/01/06 05:18:35;;;;;;;8.05;2.70;;;;;;;;;;5099479;28;20061;-69
2023/01/06 05:21:01;;;;;;;6.65;3.25;;;;;;;;;;5093681;28;21523;-69
2023/01/06 05:23:27;;;;;;;11.40;3.53;;;;;;;;;;5098973;28;20039;-69
2023/01/06 05:25:54;;;;;;;8.38;3.75;;;;;;;;;;5097766;28;20051;-69
2023/01/06 05:28:20;;;;;;;7.10;3.83;;;;;;;;;;5093344;28;20127;-69
2023/01/06 05:30:46;;;;;;;9.32;4.88;;;;;;;;;;5097791;28;20040;-69
2023/01/06 05:33:13;;;;;;;10.38;4.65;;;;;;;;;;5094708;28;20864;-69
2023/01/06 05:35:39;;;;;;;10.50;5.40;;;;;;;;;;5094157;28;20044;-69
2023/01/06 05:38:05;;;;;;;11.35;5.47;;;;;;;;;;5078185;28;20084;-69
2023/01/06 05:40:31;;;;;;;11.48;5.60;;;;;;;;;;5095223;28;20052;-68
2023/01/06 05:42:57;;;;;;;13.43;6.07;;;;;;;;;;5091967;28;20685;-69
2023/01/06 05:45:24;;;;;;;9.75;6.00;;;;;;;;;;5093646;28;20047;-69
2023/01/06 05:47:51;;;;;;;11.77;5.70;;;;;;;;;;5098895;28;20081;-69
2023/01/06 05:50:17;;;;;;;21.13;7.28;;;;;;;;;;5097519;28;20054;-69
2023/01/06 05:52:43;;;;;;;10.70;6.90;;;;;;;;;;5099007;28;20050;-69
2023/01/06 05:55:10;;;;;;;10.55;6.05;;;;;;;;;;5097968;28;20069;-69
2023/01/06 05:57:36;;;;;;;11.65;6.63;;;;;;;;;;5094537;28;20070;-69
2023/01/06 06:00:04;;;;;;;16.20;7.65;;;;;;;;;;5097587;28;20043;-69
2023/01/06 06:02:31;;;;;;;11.13;6.85;;;;;;;;;;5076679;28;20127;-69
2023/01/06 06:04:57;;;;;;;10.52;6.43;;;;;;;;;;5096561;27;20436;-69
2023/01/06 06:07:23;;;;;;;12.32;7.40;;;;;;;;;;5094368;28;20043;-69
2023/01/06 06:09:49;;;;;;;11.70;7.53;;;;;;;;;;5097794;28;20786;-69
2023/01/06 06:12:15;;;;;;;11.23;7.82;;;;;;;;;;5097523;28;20144;-69
2023/01/06 06:14:41;;;;;;;15.00;9.55;;;;;;;;;;5099351;28;20040;-69
2023/01/06 06:17:08;;;;;;;20.40;8.98;;;;;;;;;;5102706;28;20063;-69
2023/01/06 06:19:34;;;;;;;13.98;8.48;;;;;;;;;;5092404;28;20047;-69
2023/01/06 06:22:00;;;;;;;15.43;8.75;;;;;;;;;;5097307;28;20036;-69
2023/01/06 06:24:26;;;;;;;15.88;9.25;;;;;;;;;;5097159;28;20054;-69
2023/01/06 06:26:52;;;;;;;18.02;9.93;;;;;;;;;;5092196;28;20043;-69
2023/01/06 06:29:18;;;;;;;19.17;10.35;;;;;;;;;;5094920;28;20149;-69
2023/01/06 06:31:45;;;;;;;16.65;10.00;;;;;;;;;;5098733;28;20093;-69
2023/01/06 06:34:12;;;;;;;17.48;10.05;;;;;;;;;;5093322;28;20040;-69
2023/01/06 06:36:38;;;;;;;19.83;11.27;;;;;;;;;;5076886;28;20129;-69
2023/01/06 06:39:05;;;;;;;16.25;10.85;;;;;;;;;;5092751;28;20208;-69
2023/01/06 06:41:31;;;;;;;16.65;10.27;;;;;;;;;;5096006;28;20487;-69
2023/01/06 06:43:57;;;;;;;16.95;10.32;;;;;;;;;;5098458;28;20050;-68
2023/01/06 06:46:23;;;;;;;19.23;10.05;;;;;;;;;;5099260;28;20039;-69
2023/01/06 06:48:49;;;;;;;16.75;10.70;;;;;;;;;;5101020;28;20110;-69
2023/01/06 06:51:17;;;;;;;15.45;9.80;;;;;;;;;;5098701;28;20127;-70
2023/01/06 06:53:43;;;;;;;15.35;9.70;;;;;;;;;;5096795;28;20129;-69
2023/01/06 06:56:10;;;;;;;13.98;7.30;;;;;;;;;;5095675;28;20078;-69
2023/01/06 06:58:37;;;;;;;13.45;7.63;;;;;;;;;;5097652;28;20039;-69
2023/01/06 07:01:04;;;;;;;12.50;5.00;;;;;;;;;;5095263;28;20051;-69
2023/01/06 07:03:30;;;;;;;13.98;5.97;;;;;;;;;;5095143;28;20494;-69
2023/01/06 07:05:56;;;;;;;8.95;4.72;;;;;;;;;;5100238;28;20466;-69
2023/01/06 07:08:22;;;;;;;16.05;3.55;;;;;;;;;;5087536;28;20035;-68
2023/01/06 07:10:49;;;;;;;14.27;3.38;;;;;;;;;;5100299;28;20047;-69
2023/01/06 07:13:15;;;;;;;21.17;3.92;;;;;;;;;;5082058;28;20067;-68
2023/01/06 07:15:41;;;;;;;12.20;3.08;;;;;;;;;;5108055;28;20111;-69
2023/01/06 07:18:07;;;;;;;11.95;2.45;;;;;;;;;;5107304;28;20040;-69
2023/01/06 07:20:34;;;;;;;11.63;1.73;;;;;;;;;;5106922;28;20089;-69
2023/01/06 07:23:01;;;;;;;7.63;1.83;;;;;;;;;;5107293;27;20043;-67
2023/01/06 07:25:27;;;;;;;11.57;1.17;;;;;;;;;;5104364;27;20425;-67
2023/01/06 07:27:54;;;;;;;7.43;1.50;;;;;;;;;;5095721;28;20376;-69
2023/01/06 07:30:21;;;;;;;7.93;1.73;;;;;;;;;;5107644;28;20044;-67
2023/01/06 07:32:47;;;;;;;11.02;1.20;;;;;;;;;;5107912;28;20040;-67
2023/01/06 07:35:14;;;;;;;13.70;1.45;;;;;;;;;;5108485;28;20039;-66
2023/01/06 07:37:40;;;;;;;6.55;1.17;;;;;;;;;;5094831;28;20480;-66
2023/01/06 07:40:06;;;;;;;9.80;1.67;;;;;;;;;;5094321;27;20116;-67
2023/01/06 07:42:32;;;;;;;10.63;2.03;;;;;;;;;;5104217;27;20044;-67
2023/01/06 07:44:59;;;;;;;9.13;1.20;;;;;;;;;;5093037;28;20047;-67
2023/01/06 07:47:25;;;;;;;10.13;1.52;;;;;;;;;;5104485;28;20066;-68
2023/01/06 07:49:51;;;;;;;7.85;1.20;;;;;;;;;;5108191;28;20597;-67
2023/01/06 07:52:17;;;;;;;13.23;1.58;;;;;;;;;;5108332;28;20039;-67
2023/01/06 07:54:43;;;;;;;14.18;2.25;;;;;;;;;;5090684;28;20050;-67
2023/01/06 07:57:09;;;;;;;12.75;1.85;;;;;;;;;;5104042;28;20024;-67
2023/01/06 07:59:36;;;;;;;14.38;1.85;;;;;;;;;;5100859;28;20040;-67
2023/01/06 08:02:02;;;;;;;11.90;2.28;;;;;;;;;;5106869;28;20052;-67
2023/01/06 08:04:28;;;;;;;12.40;1.90;;;;;;;;;;5105255;28;20126;-67
2023/01/06 08:06:54;;;;;;;18.05;2.45;;;;;;;;;;5106495;27;20708;-67
2023/01/06 08:09:20;;;;;;;18.02;2.78;;;;;;;;;;5105706;28;20066;-65
2023/01/06 08:11:46;;;;;;;21.42;2.50;;;;;;;;;;5105501;28;20055;-67
2023/01/06 08:14:13;;;;;;;16.67;2.40;;;;;;;;;;5104778;27;20171;-67
2023/01/06 08:16:39;;;;;;;17.02;2.35;;;;;;;;;;5097045;27;20039;-67
2023/01/06 08:19:06;;;;;;;21.23;2.40;;;;;;;;;;5109425;28;20771;-67
2023/01/06 08:21:32;;;;;;;13.93;1.60;;;;;;;;;;5101519;27;20047;-80
2023/01/06 08:23:58;;;;;;;13.13;1.85;;;;;;;;;;5106755;27;20040;-68
2023/01/06 08:26:24;;;;;;;17.70;2.25;;;;;;;;;;5107448;28;20074;-67
2023/01/06 08:28:52;;;;;;;19.52;2.30;;;;;;;;;;5106896;28;20034;-67
2023/01/06 08:31:19;;;;;;;17.27;2.05;;;;;;;;;;5108098;28;20075;-67
2023/01/06 08:33:46;;;;;;;15.20;2.67;;;;;;;;;;5095298;28;20156;-66
2023/01/06 08:36:14;;;;;;;14.90;2.47;;;;;;;;;;5105207;28;20063;-66
2023/01/06 08:38:40;;;;;;;20.35;2.78;;;;;;;;;;5105134;28;20036;-66
2023/01/06 08:41:07;;;;;;;20.15;2.72;;;;;;;;;;5106041;27;20047;-65
2023/01/06 08:43:34;;;;;;;21.52;3.00;;;;;;;;;;5106638;28;20059;-66
2023/01/06 08:46:02;;;;;;;18.40;2.78;;;;;;;;;;5094041;28;20134;-65
2023/01/06 08:48:29;;;;;;;19.98;2.08;;;;;;;;;;5085118;28;20043;-66
2023/01/06 08:50:56;;;;;;;34.92;4.82;;;;;;;;;;5096656;28;20135;-66
2023/01/06 08:53:23;;;;;;;25.98;2.72;;;;;;;;;;5104656;28;20490;-66
2023/01/06 08:55:49;;;;;;;21.33;2.25;;;;;;;;;;5096904;27;20399;-68
2023/01/06 08:58:15;;;;;;;27.67;3.33;;;;;;;;;;5105996;27;20372;-68
2023/01/06 09:00:42;;;;;;;26.23;2.42;;;;;;;;;;5094410;28;20127;-68
2023/01/06 09:03:08;;;;;;;24.35;3.05;;;;;;;;;;5097272;28;20428;-67
2023/01/06 09:05:34;;;;;;;23.88;2.97;;;;;;;;;;5097319;28;20129;-67
2023/01/06 09:08:00;;;;;;;20.25;3.28;;;;;;;;;;5104726;28;20372;-67
2023/01/06 09:10:27;;;;;;;14.75;2.17;;;;;;;;;;5107211;28;20031;-67
2023/01/06 09:12:53;;;;;;;15.23;2.35;;;;;;;;;;5105312;28;20071;-67
2023/01/06 09:15:19;;;;;;;19.50;2.40;;;;;;;;;;5094555;28;20086;-67
2023/01/06 09:17:45;;;;;;;16.73;3.42;;;;;;;;;;5115398;27;20035;-68
2023/01/06 09:20:11;;;;;;;23.80;2.53;;;;;;;;;;5104594;28;20455;-68
2023/01/06 09:22:37;;;;;;;23.65;2.95;;;;;;;;;;5103753;28;20044;-68
2023/01/06 09:25:04;;;;;;;25.15;3.33;;;;;;;;;;5105833;28;20502;-68
2023/01/06 09:27:30;;;;;;;24.60;2.70;;;;;;;;;;5092543;28;20079;-73
2023/01/06 09:29:56;;;;;;;22.08;3.80;;;;;;;;;;5094752;28;20130;-69
2023/01/06 09:32:22;;;;;;;20.48;3.83;;;;;;;;;;5095768;27;20051;-68
2023/01/06 09:34:49;;;;;;;28.48;3.53;;;;;;;;;;5103551;28;20068;-68
2023/01/06 09:37:15;;;;;;;21.38;3.53;;;;;;;;;;5101763;28;20494;-68
2023/01/06 09:39:41;;;;;;;17.73;2.15;;;;;;;;;;5102035;28;20058;-68
2023/01/06 09:42:19;;;;;;;17.15;2.20;;;;;;;;;;5101582;28;20101;-69
2023/01/06 09:44:48;;;;;;;12.75;2.25;;;;;;;;;;5102261;28;20096;-69
2023/01/06 09:47:20;;;;;;;20.48;3.42;;;;;;;;;;5095194;28;20445;-69
2023/01/06 09:49:49;;;;;;;17.42;3.08;;;;;;;;;;5093677;27;20063;-69
2023/01/06 09:52:28;;;;;;;15.13;2.53;;;;;;;;;;5101604;28;20449;-69
2023/01/06 09:54:57;;;;;;;16.95;3.15;;;;;;;;;;5081612;28;20079;-68
2023/01/06 09:57:28;;;;;;;20.10;2.70;;;;;;;;;;5100037;28;20035;-68
2023/01/06 09:59:56;;;;;;;13.68;1.77;;;;;;;;;;5103562;28;20153;-68
2023/01/06 10:02:27;;;;;;;19.60;2.33;;;;;;;;;;5100938;28;20051;-68
2023/01/06 10:04:53;;;;;;;18.23;2.72;;;;;;;;;;5102024;28;20054;-69
2023/01/06 10:07:32;;;;;;;19.60;3.05;;;;;;;;;;5092959;28;20036;-68
2023/01/06 10:09:58;;;;;;;15.80;2.60;;;;;;;;;;5102860;28;20091;-68
2023/01/06 10:12:32;;;;;;;19.50;2.65;;;;;;;;;;5091872;28;20530;-68
2023/01/06 10:15:08;;;;;;;14.77;2.42;;;;;;;;;;5106026;28;20031;-68
2023/01/06 10:17:48;;;;;;;13.63;2.50;;;;;;;;;;5106834;28;20050;-68
2023/01/06 10:20:25;;;;;;;11.23;2.13;;;;;;;;;;5090131;28;20035;-68
2023/01/06 10:23:00;;;;;;;19.25;2.50;;;;;;;;;;5106878;28;20436;-68
2023/01/06 10:25:33;;;;;;;22.65;3.42;;;;;;;;;;5103467;28;20120;-77
2023/01/06 10:28:00;;;;;;;;;;;;;;;;;;5095484;28;20056;-68
2023/01/06 10:30:36;;;;;;;20.67;2.33;;;;;;;;;;5104983;28;19920;-68
2023/01/06 10:33:02;;;;;;;16.92;3.40;;;;;;;;;;5103320;28;20041;-68
2023/01/06 10:35:29;;;;;;;15.45;2.70;;;;;;;;;;5103374;28;20085;-68
2023/01/06 10:37:55;;;;;;;19.65;3.00;;;;;;;;;;5104835;28;20384;-68
2023/01/06 10:40:24;;;;;;;12.10;2.05;;;;;;;;;;5102717;28;20464;-68
2023/01/06 10:42:55;;;;;;;19.42;3.22;;;;;;;;;;5100053;28;20053;-67
2023/01/06 10:45:23;;;;;;;18.23;3.72;;;;;;;;;;5102870;28;20487;-68
2023/01/06 10:47:49;;;;;;;13.40;2.60;;;;;;;;;;5103219;28;20039;-68
2023/01/06 10:50:16;;;;;;;21.35;2.33;;;;;;;;;;5101003;28;20096;-68
2023/01/06 10:52:43;;;;;;;15.27;2.47;;;;;;;;;;5101524;28;20047;-68
2023/01/06 10:55:19;;;;;;;22.52;3.35;;;;;;;;;;5102470;28;20051;-68
2023/01/06 10:57:46;;;;;;;14.82;3.13;;;;;;;;;;5104245;28;20135;-68
2023/01/06 11:00:14;;;;;;;17.10;2.65;;;;;;;;;;5103344;28;20047;-67
2023/01/06 11:02:42;;;;;;;16.58;3.88;;;;;;;;;;5104215;28;20060;-68
2023/01/06 11:05:12;;;;;;;17.00;3.08;;;;;;;;;;5094520;28;20047;-68
2023/01/06 11:07:44;;;;;;;14.75;3.15;;;;;;;;;;5092650;28;20040;-68
2023/01/06 11:10:17;;;;;;;16.02;3.58;;;;;;;;;;5103243;28;20122;-67
2023/01/06 11:12:45;;;;;;;20.10;2.20;;;;;;;;;;5104047;28;20032;-68
2023/01/06 11:15:20;;;;;;;7.47;2.20;;;;;;;;;;5091009;28;20219;-68
2023/01/06 11:17:47;;;;;;;19.58;3.10;;;;;;;;;;5102921;28;20046;-68
2023/01/06 11:20:13;;;;;;;15.27;2.33;;;;;;;;;;5103659;28;20181;-68
2023/01/06 11:22:40;;;;;;;24.55;2.55;;;;;;;;;;5091578;28;20135;-68
2023/01/06 11:25:19;;;;;;;18.05;2.55;;;;;;;;;;5094197;28;20508;-68
2023/01/06 11:27:46;;;;;;;13.70;2.03;;;;;;;;;;5100739;28;20044;-68
2023/01/06 11:30:31;;;;;;;18.00;2.72;;;;;;;;;;5103549;28;20044;-68
2023/01/06 11:32:57;;;;;;;26.30;3.55;;;;;;;;;;5108948;28;20075;-68
2023/01/06 11:35:25;;;;;;;15.15;2.85;;;;;;;;;;5107698;28;20048;-68
2023/01/06 11:37:57;;;;;;;19.33;2.85;;;;;;;;;;5107410;28;20031;-68
2023/01/06 11:40:32;;;;;;;16.90;2.55;;;;;;;;;;5106048;27;20135;-68
2023/01/06 11:43:01;;;;;;;20.65;2.75;;;;;;;;;;5106931;28;20062;-69
2023/01/06 11:45:29;;;;;;;24.13;3.22;;;;;;;;;;5092149;28;20050;-69
2023/01/06 11:47:55;;;;;;;18.67;3.38;;;;;;;;;;5106473;27;20051;-68
2023/01/06 11:50:21;;;;;;;19.58;3.10;;;;;;;;;;5109124;27;20066;-68
2023/01/06 11:53:04;;;;;;;12.10;2.25;;;;;;;;;;5103523;27;20405;-68
2023/01/06 11:55:30;;;;;;;19.98;2.92;;;;;;;;;;5090885;27;20044;-69
2023/01/06 11:58:00;;;;;;;18.23;2.58;;;;;;;;;;5089432;28;20218;-69
2023/01/06 12:00:31;;;;;;;21.23;3.20;;;;;;;;;;5107287;27;20112;-69
2023/01/06 12:03:10;;;;;;;14.93;2.65;;;;;;;;;;5105834;28;20052;-69
2023/01/06 12:05:38;;;;;;;14.65;3.05;;;;;;;;;;5106430;27;20039;-68
2023/01/06 12:08:06;;;;;;;16.25;2.33;;;;;;;;;;5107424;27;20085;-68
2023/01/06 12:10:34;;;;;;;12.27;3.22;;;;;;;;;;5107299;28;20062;-69
2023/01/06 12:13:00;;;;;;;17.60;2.47;;;;;;;;;;5105338;27;20043;-69
2023/01/06 12:15:28;;;;;;;22.63;3.20;;;;;;;;;;5095594;28;20137;-68
2023/01/06 12:17:57;;;;;;;17.23;3.05;;;;;;;;;;5106099;28;20036;-68
2023/01/06 12:20:26;;;;;;;17.55;3.22;;;;;;;;;;5107145;27;20036;-68
2023/01/06 12:22:58;;;;;;;19.65;2.90;;;;;;;;;;5107186;28;20092;-68
2023/01/06 12:25:27;;;;;;;16.25;2.75;;;;;;;;;;5091572;28;20043;-68
2023/01/06 12:27:56;;;;;;;13.93;2.00;;;;;;;;;;5108889;28;20050;-68
2023/01/06 12:30:27;;;;;;;19.13;2.78;;;;;;;;;;5099031;27;20051;-68
2023/01/06 12:32:56;;;;;;;17.08;2.53;;;;;;;;;;5097450;28;20078;-68
2023/01/06 12:35:25;;;;;;;17.42;2.58;;;;;;;;;;5090944;28;20036;-68
2023/01/06 12:38:02;;;;;;;20.60;4.35;;;;;;;;;;5104930;27;20051;-67
2023/01/06 12:40:32;;;;;;;14.20;2.40;;;;;;;;;;5104341;28;20040;-68
2023/01/06 12:43:02;;;;;;;17.92;2.78;;;;;;;;;;5092909;28;20060;-68
2023/01/06 12:45:33;;;;;;;13.55;3.08;;;;;;;;;;5105614;27;20051;-68
2023/01/06 12:48:03;;;;;;;19.55;2.53;;;;;;;;;;5096075;28;20420;-68
2023/01/06 12:50:35;;;;;;;13.23;2.45;;;;;;;;;;5105104;27;20478;-69
2023/01/06 12:53:11;;;;;;;24.10;3.88;;;;;;;;;;5106523;27;20375;-69
2023/01/06 12:55:42;;;;;;;20.33;3.50;;;;;;;;;;5097345;28;20128;-69
2023/01/06 12:58:25;;;;;;;18.35;3.28;;;;;;;;;;5107568;28;20445;-70
2023/01/06 13:01:00;;;;;;;14.23;2.38;;;;;;;;;;5107471;27;20055;-69
2023/01/06 13:03:35;;;;;;;19.55;2.67;;;;;;;;;;5100004;27;20039;-69
2023/01/06 13:06:17;;;;;;;12.35;2.13;;;;;;;;;;5106559;27;20054;-69
2023/01/06 13:09:02;;;;;;;12.85;2.20;;;;;;;;;;5105417;28;20035;-69
2023/01/06 13:11:35;;;;;;;13.10;2.83;;;;;;;;;;5101929;28;20051;-69
2023/01/06 13:14:19;;;;;;;18.73;2.75;;;;;;;;;;5109203;28;20051;-69
2023/01/06 13:16:52;;;;;;;17.58;2.50;;;;;;;;;;5103361;28;20047;-69
2023/01/06 13:19:27;;;;;;;13.02;2.85;;;;;;;;;;5106589;27;20731;-69
2023/01/06 13:21:55;;;;;;;16.83;3.28;;;;;;;;;;5103974;27;20464;-69
2023/01/06 13:24:35;;;;;;;22.92;2.83;;;;;;;;;;5088875;28;20104;-69
2023/01/06 13:27:08;;;;;;;24.27;3.08;;;;;;;;;;5103092;27;20044;-69
2023/01/06 13:29:42;;;;;;;14.82;2.47;;;;;;;;;;5106118;27;20093;-69
2023/01/06 13:32:09;;;;;;;17.85;3.25;;;;;;;;;;5096632;28;20052;-69
2023/01/06 13:34:42;;;;;;;17.33;2.38;;;;;;;;;;5103085;27;20051;-69
2023/01/06 13:37:08;;;;;;;16.85;2.97;;;;;;;;;;5094162;28;20051;-69
2023/01/06 13:39:37;;;;;;;15.55;2.90;;;;;;;;;;5103710;28;20043;-69
2023/01/06 13:42:05;;;;;;;18.92;3.05;;;;;;;;;;5098706;28;20077;-69
2023/01/06 13:44:34;;;;;;;11.88;1.90;;;;;;;;;;5105265;27;20054;-69
2023/01/06 13:47:04;;;;;;;15.70;2.80;;;;;;;;;;5106697;28;20089;-68
2023/01/06 13:49:31;;;;;;;15.00;2.45;;;;;;;;;;5090054;28;20040;-69
2023/01/06 13:51:57;;;;;;;21.55;3.70;;;;;;;;;;5105108;28;20093;-68
2023/01/06 13:54:38;;;;;;;18.15;3.17;;;;;;;;;;5094669;28;20126;-68
2023/01/06 13:57:20;;;;;;;14.18;2.25;;;;;;;;;;5103906;28;20051;-68
2023/01/06 13:59:51;;;;;;;19.15;2.40;;;;;;;;;;5101520;28;20130;-68
2023/01/06 14:02:33;;;;;;;16.20;2.88;;;;;;;;;;5087782;28;20059;-68
2023/01/06 14:05:01;;;;;;;17.05;2.80;;;;;;;;;;5101618;27;20040;-72
2023/01/06 14:07:32;;;;;;;18.45;3.55;;;;;;;;;;5089472;28;20039;-69
2023/01/06 14:09:58;;;;;;;22.75;4.18;;;;;;;;;;5103782;28;20146;-68
2023/01/06 14:12:25;;;;;;;12.35;2.55;;;;;;;;;;5095654;28;20059;-69
2023/01/06 14:14:58;;;;;;;15.80;2.70;;;;;;;;;;5105331;28;20379;-69
2023/01/06 14:17:27;;;;;;;20.45;3.08;;;;;;;;;;5089106;28;20036;-69
2023/01/06 14:19:54;;;;;;;15.73;2.78;;;;;;;;;;5090069;28;20062;-69
2023/01/06 14:22:23;;;;;;;14.80;3.70;;;;;;;;;;5107909;28;20180;-69
2023/01/06 14:24:51;;;;;;;13.32;2.45;;;;;;;;;;5100432;28;20140;-70
2023/01/06 14:27:37;;;;;;;15.27;2.72;;;;;;;;;;5108189;28;20071;-70
2023/01/06 14:30:04;;;;;;;15.95;2.53;;;;;;;;;;5107388;28;20062;-70
2023/01/06 14:32:35;;;;;;;20.85;3.17;;;;;;;;;;5106125;28;20508;-69
2023/01/06 14:35:02;;;;;;;18.50;2.80;;;;;;;;;;5097425;28;20087;-69
2023/01/06 14:37:31;;;;;;;16.13;4.47;;;;;;;;;;5098568;28;20458;-69
2023/01/06 14:39:58;;;;;;;25.08;6.05;;;;;;;;;;5105745;28;20086;-69
2023/01/06 14:42:33;;;;;;;24.75;5.25;;;;;;;;;;5097577;28;20115;-69